Aviation Digital Data Service (ADDS)

Output produced by TAFs form (0223 UTC 01 November 2014)
found at http://aviationweather.gov/adds/tafs/
 
KSAF 312334Z 0100/0124 16013KT P6SM FEW080 SCT200 
     FM010200 13010KT P6SM SCT070 SCT200 
     FM010800 15005KT P6SM VCSH BKN050 
     FM011600 16008KT P6SM SCT050 
     FM012000 20008KT P6SM FEW060 SCT200